Time;durP1;ratioP1;P1;durP2;ratioP2;P2;SDS_P1;SDS_P2;PMS_P1;PMS_P2;Temp;Humidity;BMP_temperature;BMP_pressure;BME280_temperature;BME280_humidity;BME280_pressure;Samples;Min_cycle;Max_cycle;Signal;HPM_P1;HPM_P2
2023/04/29 00:00:37;;;;;;;;;6.00;4.00;;;;;17.69;56.35;101058.16;5033862;28;45163;-59
2023/04/29 00:03:02;;;;;;;;;1.00;1.00;;;;;17.63;56.19;101047.22;5034943;28;45224;-59
2023/04/29 00:05:28;;;;;;;;;6.00;6.00;;;;;17.58;56.15;101042.44;5035233;28;45964;-59
2023/04/29 00:07:53;;;;;;;;;4.00;4.00;;;;;17.55;56.22;101045.72;5034604;28;45383;-60
2023/04/29 00:10:19;;;;;;;;;4.50;4.50;;;;;17.53;56.30;101040.41;5034993;28;45317;-60
2023/04/29 00:12:44;;;;;;;;;3.25;3.25;;;;;17.55;56.35;101049.31;5034592;28;45442;-60
2023/04/29 00:15:10;;;;;;;;;3.75;3.75;;;;;17.48;56.59;101041.19;5034603;28;45314;-60
2023/04/29 00:17:36;;;;;;;;;6.75;5.00;;;;;17.41;56.49;101037.72;5034118;28;47373;-60
2023/04/29 00:20:01;;;;;;;;;9.00;8.00;;;;;17.42;56.87;101047.72;5034288;28;45365;-60
2023/04/29 00:22:27;;;;;;;;;6.00;5.75;;;;;17.42;56.64;101044.94;5034757;28;45377;-60
2023/04/29 00:24:53;;;;;;;;;7.00;6.00;;;;;17.36;57.01;101045.09;5034460;28;45538;-59
2023/04/29 00:27:18;;;;;;;;;8.50;8.50;;;;;17.41;56.83;101040.50;5049798;28;47458;-60
2023/04/29 00:29:44;;;;;;;;;10.00;7.00;;;;;17.40;56.84;101032.41;5034516;28;45266;-60
2023/04/29 00:32:09;;;;;;;;;8.25;6.50;;;;;17.43;56.87;101032.75;5034292;28;45306;-60
2023/04/29 00:34:35;;;;;;;;;10.00;8.50;;;;;17.53;56.55;101026.53;5034684;28;45354;-60
2023/04/29 00:37:00;;;;;;;;;7.25;6.25;;;;;17.50;56.49;101028.97;5033413;28;46289;-60
2023/04/29 00:39:26;;;;;;;;;8.50;6.50;;;;;17.41;56.54;101029.41;5034161;28;45270;-60
2023/04/29 00:41:51;;;;;;;;;7.00;7.00;;;;;17.41;56.73;101039.66;5033779;28;45287;-60
2023/04/29 00:44:17;;;;;;;;;6.00;6.00;;;;;17.37;56.82;101019.88;5034223;28;45257;-60
2023/04/29 00:46:43;;;;;;;;;6.25;6.25;;;;;17.48;56.53;101021.75;5033897;28;45884;-60
2023/04/29 00:49:09;;;;;;;;;6.20;6.20;;;;;17.41;56.64;101023.84;5032689;28;45337;-60
2023/04/29 00:51:35;;;;;;;;;7.00;7.00;;;;;17.37;56.46;101014.34;4980149;28;45454;-60
2023/04/29 00:54:04;;;;;;;;;6.80;6.80;;;;;17.40;56.57;101022.16;4947969;28;45633;-60
2023/04/29 00:56:31;;;;;;;;;6.60;6.60;;;;;17.36;56.25;101029.31;4947131;28;46300;-60
2023/04/29 00:58:57;;;;;;;;;6.40;6.40;;;;;17.30;56.92;101022.81;4939992;28;45380;-60
2023/04/29 01:01:23;;;;;;;;;6.80;6.80;;;;;17.32;56.86;101028.97;4958586;28;45681;-60
2023/04/29 01:03:49;;;;;;;;;8.40;8.20;;;;;17.20;56.87;101006.81;4931398;28;45483;-60
2023/04/29 01:06:23;;;;;;;;;7.60;6.80;;;;;17.30;56.88;101021.97;4932723;28;46126;-59
2023/04/29 01:09:05;;;;;;;;;7.00;7.00;;;;;17.24;56.92;101023.81;4963829;28;45307;-60
2023/04/29 01:11:34;;;;;;;;;7.00;5.40;;;;;17.32;56.87;101025.34;4933287;28;45225;-60
2023/04/29 01:14:00;;;;;;;;;8.00;6.80;;;;;17.24;57.07;101021.03;4933069;28;45554;-60
2023/04/29 01:16:36;;;;;;;;;7.25;6.75;;;;;17.29;56.92;101036.94;4963209;28;46726;-60
2023/04/29 01:19:06;;;;;;;;;7.60;5.00;;;;;17.24;56.96;101022.97;4932849;28;45366;-60
2023/04/29 01:21:31;;;;;;;;;6.80;6.20;;;;;17.28;56.97;101021.41;4947443;28;45257;-60
2023/04/29 01:23:57;;;;;;;;;7.50;7.50;;;;;17.13;56.87;101010.88;4933094;28;45254;-60
2023/04/29 01:26:23;;;;;;;;;3.00;2.00;;;;;17.02;57.47;101030.06;4932299;28;45221;-60
2023/04/29 01:29:07;;;;;;;;;6.80;6.80;;;;;17.10;57.39;101019.66;4932520;28;45362;-60
2023/04/29 01:32:07;;;;;;;;;5.80;5.60;;;;;17.18;56.95;101020.13;4961970;28;45357;-59
2023/04/29 01:34:51;;;;;;;;;11.40;10.40;;;;;17.26;56.95;101029.97;4958318;28;45392;-61
2023/04/29 01:37:48;;;;;;;;;5.20;4.80;;;;;17.01;57.43;101036.69;4932165;28;45846;-60
2023/04/29 01:40:29;;;;;;;;;6.60;6.60;;;;;17.14;57.02;101029.19;4947064;28;46045;-60
2023/04/29 01:43:02;;;;;;;;;7.00;7.00;;;;;17.17;57.16;101025.91;4963453;28;45620;-60
2023/04/29 01:45:27;;;;;;;;;6.40;5.80;;;;;17.18;56.95;101024.84;4962847;28;45386;-60
2023/04/29 01:47:55;;;;;;;;;8.00;5.00;;;;;17.20;56.86;101019.88;4932949;28;45584;-60
2023/04/29 01:50:20;;;;;;;;;6.40;6.40;;;;;17.08;56.82;101003.31;4965747;28;45336;-60
2023/04/29 01:52:46;;;;;;;;;8.25;6.00;;;;;17.16;56.84;101018.69;5022456;28;45296;-60
2023/04/29 01:55:11;;;;;;;;;5.25;5.25;;;;;17.08;57.14;101019.94;5037157;28;45595;-60
2023/04/29 01:57:37;;;;;;;;;8.75;8.00;;;;;16.85;57.49;101005.06;5036382;28;45439;-60
2023/04/29 02:00:03;;;;;;;;;6.00;6.00;;;;;16.94;57.58;101022.13;5036797;28;45353;-60
2023/04/29 02:02:29;;;;;;;;;7.80;7.80;;;;;16.89;57.23;101008.19;5036490;28;45218;-60
2023/04/29 02:04:54;;;;;;;;;6.00;6.00;;;;;16.96;57.64;101019.94;4955046;28;45375;-60
2023/04/29 02:07:20;;;;;;;;;7.00;5.25;;;;;16.93;57.55;101015.75;4935262;28;45781;-60
2023/04/29 02:09:46;;;;;;;;;8.00;7.00;;;;;16.89;57.59;101013.72;4935000;28;45203;-60
2023/04/29 02:12:11;;;;;;;;;6.25;6.00;;;;;16.92;57.38;101016.84;4935269;28;45235;-60
2023/04/29 02:14:37;;;;;;;;;4.25;4.00;;;;;16.88;57.63;101015.66;4949995;28;45328;-60
2023/04/29 02:17:02;;;;;;;;;8.00;8.00;;;;;16.91;57.74;101015.16;4934982;28;46387;-60
2023/04/29 02:19:27;;;;;;;;;5.00;5.00;;;;;16.97;57.59;101015.25;4935090;28;45393;-60
2023/04/29 02:21:53;;;;;;;;;6.00;6.00;;;;;16.95;57.53;101026.59;4934874;28;45412;-60
2023/04/29 02:24:18;;;;;;;;;6.75;6.25;;;;;17.00;57.55;101032.25;4935362;28;45556;-60
2023/04/29 02:26:44;;;;;;;;;8.75;8.00;;;;;16.98;57.34;101031.66;4934402;28;45709;-60
2023/04/29 02:29:09;;;;;;;;;7.50;6.75;;;;;16.96;57.42;101033.81;4935189;28;45479;-60
2023/04/29 02:31:35;;;;;;;;;11.50;8.75;;;;;16.94;57.34;101031.31;4935091;28;45375;-60
2023/04/29 02:34:00;;;;;;;;;8.25;7.50;;;;;16.74;57.84;101028.09;4934796;28;45833;-60
2023/04/29 02:36:26;;;;;;;;;11.00;9.00;;;;;16.68;58.22;101035.50;4934830;28;45962;-60
2023/04/29 02:38:54;;;;;;;;;7.00;7.00;;;;;16.70;57.84;101033.31;4934540;28;45445;-60
2023/04/29 02:41:19;;;;;;;;;8.40;8.40;;;;;16.49;58.51;101021.81;4935064;28;45412;-60
2023/04/29 02:43:45;;;;;;;;;7.75;6.50;;;;;16.60;58.53;101031.16;4934408;28;45315;-60
2023/04/29 02:46:10;;;;;;;;;8.50;7.50;;;;;16.63;58.23;101025.16;4934792;28;45631;-60
2023/04/29 02:48:36;;;;;;;;;7.00;7.00;;;;;16.58;58.13;101016.72;4933385;28;45395;-60
2023/04/29 02:51:02;;;;;;;;;10.50;8.00;;;;;16.57;58.48;101026.13;4937092;28;45310;-60
2023/04/29 02:53:27;;;;;;;;;8.00;8.00;;;;;16.56;58.60;101030.00;5036009;28;45513;-60
2023/04/29 02:55:53;;;;;;;;;7.00;7.00;;;;;16.62;58.48;101031.78;5035571;28;45942;-60
2023/04/29 02:58:18;;;;;;;;;9.00;8.00;;;;;16.61;58.35;101029.25;5035636;28;45306;-60
2023/04/29 03:00:43;;;;;;;;;10.00;9.00;;;;;16.57;58.53;101025.28;5035954;28;45844;-59
2023/04/29 03:03:09;;;;;;;;;9.50;7.25;;;;;16.61;58.32;101024.56;5035720;28;46022;-60
2023/04/29 03:05:35;;;;;;;;;7.00;7.00;;;;;16.47;58.46;101020.38;5035818;28;47235;-61
2023/04/29 03:08:00;;;;;;;;;8.25;8.00;;;;;16.44;58.69;101038.31;5035284;28;45508;-60
2023/04/29 03:10:26;;;;;;;;;8.50;8.25;;;;;16.39;58.86;101033.50;5035584;28;45413;-60
2023/04/29 03:12:51;;;;;;;;;7.00;7.00;;;;;16.23;59.34;101037.03;5035733;28;45449;-60
2023/04/29 03:15:17;;;;;;;;;8.00;6.00;;;;;16.20;59.17;101021.75;5035218;28;46756;-60
2023/04/29 03:17:45;;;;;;;;;8.00;6.25;;;;;16.37;59.15;101038.47;5035378;28;45314;-60
2023/04/29 03:20:11;;;;;;;;;7.60;7.60;;;;;16.44;59.27;101041.09;5035253;28;45207;-60
2023/04/29 03:22:36;;;;;;;;;9.25;8.00;;;;;16.34;58.81;101036.16;5035753;28;45227;-60
2023/04/29 03:25:01;;;;;;;;;6.75;6.00;;;;;16.27;59.10;101021.59;5034751;28;46071;-60
2023/04/29 03:27:27;;;;;;;;;8.50;8.50;;;;;16.41;58.93;101060.97;5035233;28;45208;-59
2023/04/29 03:29:53;;;;;;;;;6.80;6.80;;;;;16.28;59.42;101056.56;5035633;28;45246;-59
2023/04/29 03:32:18;;;;;;;;;9.50;7.25;;;;;16.31;59.38;101056.06;5067621;28;45443;-60
2023/04/29 03:34:44;;;;;;;;;8.25;8.25;;;;;16.43;58.98;101063.50;5035246;28;46353;-59
2023/04/29 03:37:09;;;;;;;;;9.00;8.00;;;;;16.40;59.04;101064.84;5034251;28;45927;-59
2023/04/29 03:39:35;;;;;;;;;12.25;11.00;;;;;16.49;58.96;101052.28;5035541;28;45405;-59
2023/04/29 03:42:01;;;;;;;;;8.50;8.50;;;;;16.62;58.66;101061.41;5035551;28;45425;-60
2023/04/29 03:44:28;;;;;;;;;12.00;9.00;;;;;16.53;58.71;101055.41;4992680;28;46329;-60
2023/04/29 03:46:53;;;;;;;;;9.20;8.20;;;;;16.56;58.77;101051.31;4982346;28;45513;-60
2023/04/29 03:49:19;;;;;;;;;11.50;8.50;;;;;16.71;58.31;101059.94;4953503;28;45329;-60
2023/04/29 03:51:44;;;;;;;;;8.75;8.50;;;;;16.60;57.89;101035.88;4948256;28;45484;-60
2023/04/29 03:54:11;;;;;;;;;11.75;11.75;;;;;16.70;58.30;101060.19;4932660;28;46043;-64
2023/04/29 03:56:36;;;;;;;;;14.80;11.00;;;;;16.67;58.06;101056.81;4949117;28;45440;-60
2023/04/29 03:59:02;;;;;;;;;13.00;12.50;;;;;16.37;58.46;101051.47;4934157;28;45461;-61
2023/04/29 04:01:27;;;;;;;;;11.50;11.00;;;;;16.38;58.97;101067.84;4934407;28;45252;-61
2023/04/29 04:03:53;;;;;;;;;13.50;11.00;;;;;16.44;58.89;101073.50;4933816;28;46457;-61
2023/04/29 04:06:18;;;;;;;;;19.50;15.50;;;;;16.24;59.26;101060.88;4948880;28;45346;-62
2023/04/29 04:08:44;;;;;;;;;18.00;16.50;;;;;16.29;59.08;101074.84;4933993;28;45482;-60
2023/04/29 04:11:09;;;;;;;;;15.50;14.00;;;;;16.30;58.96;101073.75;4934038;28;45441;-61
2023/04/29 04:13:35;;;;;;;;;16.00;14.00;;;;;16.26;59.55;101075.31;4933914;28;46421;-61
2023/04/29 04:16:01;;;;;;;;;17.80;16.80;;;;;16.29;59.20;101079.53;4933863;28;45245;-61
2023/04/29 04:18:27;;;;;;;;;19.50;19.50;;;;;16.34;58.86;101079.66;4933903;28;45268;-61
2023/04/29 04:20:52;;;;;;;;;20.50;19.25;;;;;16.36;58.46;101081.09;4934293;28;45349;-61
2023/04/29 04:23:17;;;;;;;;;18.50;18.50;;;;;16.25;58.87;101084.72;4933761;28;45489;-59
2023/04/29 04:25:46;;;;;;;;;23.00;22.00;;;;;15.96;59.15;101043.91;4933369;28;45421;-60
2023/04/29 04:28:12;;;;;;;;;20.20;19.40;;;;;16.15;59.29;101090.00;4933732;28;45268;-59
2023/04/29 04:30:37;;;;;;;;;20.50;20.00;;;;;16.25;58.97;101095.78;4933754;28;45153;-60
2023/04/29 04:33:03;;;;;;;;;23.75;22.00;;;;;16.23;59.17;101086.91;4932949;28;45986;-60
2023/04/29 04:35:28;;;;;;;;;25.75;22.75;;;;;16.29;59.09;101093.38;4932787;28;45390;-60
2023/04/29 04:37:54;;;;;;;;;23.50;20.25;;;;;16.24;58.91;101094.13;4933781;28;45571;-59
2023/04/29 04:40:19;;;;;;;;;25.00;21.75;;;;;16.29;58.95;101094.25;4932343;28;45968;-59
2023/04/29 04:42:45;;;;;;;;;25.00;22.50;;;;;16.30;58.97;101098.69;4932649;28;46439;-59
2023/04/29 04:45:10;;;;;;;;;23.75;20.50;;;;;16.31;58.93;101097.59;4933089;28;45379;-59
2023/04/29 04:47:36;;;;;;;;;27.75;23.75;;;;;16.30;59.28;101103.38;4933162;28;45513;-60
2023/04/29 04:50:03;;;;;;;;;21.50;21.50;;;;;16.36;58.79;101106.03;4940360;28;45326;-59
2023/04/29 04:52:28;;;;;;;;;25.40;23.00;;;;;16.28;58.71;101100.00;4941991;28;46934;-60
2023/04/29 04:54:54;;;;;;;;;19.25;17.75;;;;;16.30;58.88;101108.91;4931321;28;45463;-59
2023/04/29 04:57:20;;;;;;;;;21.75;18.75;;;;;16.22;59.30;101110.13;4933228;28;45311;-60
2023/04/29 04:59:45;;;;;;;;;18.40;17.00;;;;;16.29;58.99;101116.41;4947834;28;45425;-59
2023/04/29 05:02:11;;;;;;;;;17.25;15.00;;;;;16.25;59.09;101123.50;4933335;28;46623;-60
2023/04/29 05:04:36;;;;;;;;;19.50;16.25;;;;;16.21;59.03;101123.13;4932843;28;45370;-59
2023/04/29 05:07:02;;;;;;;;;20.50;14.25;;;;;16.07;59.74;101122.50;4948095;28;45441;-59
2023/04/29 05:09:27;;;;;;;;;19.50;18.25;;;;;15.98;59.78;101130.34;4933285;28;45417;-59
2023/04/29 05:11:53;;;;;;;;;22.25;22.00;;;;;16.02;59.86;101136.25;4933132;28;46243;-59
2023/04/29 05:14:19;;;;;;;;;21.00;21.00;;;;;16.10;59.78;101141.44;4932776;28;45235;-60
2023/04/29 05:16:45;;;;;;;;;29.25;23.75;;;;;16.21;59.83;101138.88;4932575;28;45395;-59
2023/04/29 05:19:11;;;;;;;;;18.60;18.60;;;;;16.07;59.46;101146.59;4933225;28;45349;-59
2023/04/29 05:21:36;;;;;;;;;18.00;15.75;;;;;16.08;59.65;101132.53;4931702;28;45234;-59
2023/04/29 05:24:02;;;;;;;;;20.25;17.00;;;;;16.23;59.29;101154.19;4934661;28;45423;-59
2023/04/29 05:26:28;;;;;;;;;26.00;19.50;;;;;16.01;59.68;101153.91;4936119;28;45311;-59
2023/04/29 05:28:54;;;;;;;;;24.50;24.25;;;;;15.96;60.08;101159.34;4935990;28;45557;-59
2023/04/29 05:31:20;;;;;;;;;22.00;20.80;;;;;16.04;60.03;101156.22;4935648;28;46402;-59
2023/04/29 05:33:45;;;;;;;;;29.00;24.75;;;;;16.24;59.71;101171.66;4949977;28;45362;-60
2023/04/29 05:36:11;;;;;;;;;24.75;23.75;;;;;16.34;59.52;101168.28;4936088;28;45157;-60
2023/04/29 05:38:37;;;;;;;;;32.00;25.00;;;;;16.37;58.89;101174.19;4936135;28;45195;-60
2023/04/29 05:41:02;;;;;;;;;28.40;24.80;;;;;16.23;59.19;101159.72;4935485;28;46072;-59
2023/04/29 05:43:28;;;;;;;;;35.50;32.00;;;;;16.35;59.03;101189.34;4935841;28;45248;-59
2023/04/29 05:45:54;;;;;;;;;31.00;30.25;;;;;16.39;58.99;101179.50;4935302;28;45330;-59
2023/04/29 05:48:20;;;;;;;;;30.40;27.40;;;;;16.36;58.81;101188.28;4935937;28;45327;-60
2023/04/29 05:50:47;;;;;;;;;32.50;31.00;;;;;16.29;58.94;101193.09;4935313;28;46376;-60
2023/04/29 05:53:12;;;;;;;;;27.60;24.40;;;;;16.33;59.06;101188.75;5027686;28;45534;-60
2023/04/29 05:55:38;;;;;;;;;27.00;22.50;;;;;16.35;59.03;101195.75;5003686;28;45401;-59
2023/04/29 05:58:04;;;;;;;;;28.40;25.20;;;;;16.30;59.05;101203.94;4919630;28;45837;-59
2023/04/29 06:00:30;;;;;;;;;28.50;22.25;;;;;16.24;59.15;101194.63;4935406;28;46516;-59
2023/04/29 06:02:56;;;;;;;;;33.00;32.20;;;;;16.14;59.54;101199.94;4935556;28;45559;-60
2023/04/29 06:05:21;;;;;;;;;23.50;22.00;;;;;16.08;59.42;101193.44;4966353;28;45360;-59
2023/04/29 06:07:47;;;;;;;;;30.00;25.50;;;;;15.79;60.64;101204.25;4936052;28;45325;-59
2023/04/29 06:10:12;;;;;;;;;30.25;26.00;;;;;15.57;61.17;101215.00;4933919;28;45848;-60
2023/04/29 06:12:38;;;;;;;;;33.00;27.00;;;;;15.70;61.10;101211.22;4935674;28;45342;-59
2023/04/29 06:15:04;;;;;;;;;28.75;26.25;;;;;15.86;60.81;101210.53;4935379;28;45422;-59
2023/04/29 06:17:31;;;;;;;;;40.00;30.60;;;;;15.91;60.12;101201.53;4934510;28;45464;-59
2023/04/29 06:19:56;;;;;;;;;28.80;26.20;;;;;15.93;60.46;101216.03;4935070;28;46736;-60
2023/04/29 06:22:22;;;;;;;;;29.75;27.50;;;;;15.91;60.49;101217.31;4934924;28;45413;-59
2023/04/29 06:24:48;;;;;;;;;27.75;27.25;;;;;16.01;60.27;101212.06;4935203;28;45456;-59
2023/04/29 06:27:14;;;;;;;;;25.40;23.20;;;;;16.11;60.14;101220.63;4950293;28;45583;-61
2023/04/29 06:29:40;;;;;;;;;24.80;22.80;;;;;16.14;59.91;101222.09;4935156;28;46636;-60
2023/04/29 06:32:06;;;;;;;;;23.80;22.20;;;;;16.15;59.96;101223.78;4934865;28;45211;-60
2023/04/29 06:34:31;;;;;;;;;23.75;22.00;;;;;16.18;59.82;101228.00;4933229;28;45373;-59
2023/04/29 06:36:57;;;;;;;;;30.25;25.50;;;;;16.13;59.66;101229.53;4934270;28;45345;-61
2023/04/29 06:39:22;;;;;;;;;30.50;28.25;;;;;16.09;60.08;101227.50;4934188;28;46382;-59
2023/04/29 06:41:48;;;;;;;;;28.25;28.25;;;;;16.04;60.17;101225.44;4935315;28;45870;-61
2023/04/29 06:44:15;;;;;;;;;30.80;25.40;;;;;15.84;60.80;101222.94;4934557;28;45516;-59
2023/04/29 06:46:41;;;;;;;;;34.80;29.20;;;;;15.83;60.83;101222.09;4949516;28;45448;-60
2023/04/29 06:49:07;;;;;;;;;25.40;23.00;;;;;15.73;60.40;101196.91;4934532;28;46565;-59
2023/04/29 06:51:33;;;;;;;;;19.25;18.25;;;;;15.74;61.55;101233.75;4940757;28;45422;-59
2023/04/29 06:53:58;;;;;;;;;28.50;24.50;;;;;15.56;61.22;101214.19;5068066;28;45458;-58
2023/04/29 06:56:24;;;;;;;;;31.25;23.75;;;;;15.68;61.54;101230.81;5051017;28;45572;-59
2023/04/29 06:58:50;;;;;;;;;28.75;26.50;;;;;15.84;61.10;101226.56;5035881;28;45760;-60
2023/04/29 07:01:16;;;;;;;;;23.75;20.75;;;;;15.96;60.91;101223.00;5035809;28;45388;-61
2023/04/29 07:03:42;;;;;;;;;26.50;23.00;;;;;16.06;60.64;101239.88;5035582;28;45444;-62
2023/04/29 07:06:07;;;;;;;;;24.20;19.80;;;;;16.04;60.98;101238.41;5036205;28;45498;-61
2023/04/29 07:08:33;;;;;;;;;24.75;22.50;;;;;16.08;61.00;101243.28;5067767;28;46265;-60
2023/04/29 07:10:59;;;;;;;;;29.00;25.50;;;;;16.08;60.91;101247.94;5035640;28;45267;-62
2023/04/29 07:13:24;;;;;;;;;20.25;19.75;;;;;16.08;60.85;101247.94;5035793;28;45478;-60
2023/04/29 07:15:50;;;;;;;;;34.75;30.25;;;;;16.03;60.84;101240.38;5068058;28;45366;-60
2023/04/29 07:18:15;;;;;;;;;27.50;26.25;;;;;16.00;61.34;101257.44;5067831;28;45409;-60
2023/04/29 07:20:42;;;;;;;;;26.75;24.25;;;;;16.04;61.10;101244.81;5035387;28;45515;-61
2023/04/29 07:23:07;;;;;;;;;29.80;23.20;;;;;16.13;60.86;101254.47;5035636;28;45381;-60
2023/04/29 07:25:33;;;;;;;;;23.75;22.75;;;;;16.03;61.33;101245.91;5035562;28;45366;-61
2023/04/29 07:27:58;;;;;;;;;31.75;27.75;;;;;16.08;61.11;101257.13;5067750;28;47769;-60
2023/04/29 07:30:24;;;;;;;;;28.00;23.25;;;;;15.90;61.68;101252.44;5035182;28;45348;-60
2023/04/29 07:32:49;;;;;;;;;22.25;20.75;;;;;15.96;61.29;101259.00;5035044;28;45770;-60
2023/04/29 07:35:15;;;;;;;;;28.00;24.00;;;;;16.01;61.21;101261.88;5035923;28;45216;-60
2023/04/29 07:37:42;;;;;;;;;29.25;24.00;;;;;16.06;60.97;101273.09;5035313;28;46334;-61
2023/04/29 07:40:08;;;;;;;;;31.40;27.40;;;;;15.94;61.31;101270.31;5035541;28;45702;-61
2023/04/29 07:42:33;;;;;;;;;24.20;19.40;;;;;15.97;61.58;101264.28;5035844;28;45332;-61
2023/04/29 07:45:00;;;;;;;;;39.20;31.80;;;;;16.12;60.93;101268.56;5055257;28;45613;-62
2023/04/29 07:47:26;;;;;;;;;30.50;27.50;;;;;16.16;60.70;101268.94;5009028;28;45445;-61
2023/04/29 07:49:52;;;;;;;;;30.00;27.50;;;;;16.13;60.67;101273.00;5044478;28;45892;-61
2023/04/29 07:52:18;;;;;;;;;27.80;26.60;;;;;16.06;60.73;101269.50;4998554;28;45446;-62
2023/04/29 07:54:43;;;;;;;;;31.00;29.75;;;;;15.95;60.96;101257.31;4934360;28;45475;-61
2023/04/29 07:57:09;;;;;;;;;36.25;29.00;;;;;15.95;61.55;101262.84;4934038;28;46340;-60
2023/04/29 07:59:34;;;;;;;;;33.50;30.25;;;;;16.10;60.86;101266.03;4933984;28;45393;-60
2023/04/29 08:02:00;;;;;;;;;34.50;29.75;;;;;16.19;60.67;101279.53;4932435;28;45366;-62
2023/04/29 08:04:25;;;;;;;;;25.00;24.00;;;;;16.14;60.76;101283.00;4933148;28;45264;-60
2023/04/29 08:06:51;;;;;;;;;32.00;25.75;;;;;16.17;60.47;101281.69;4933686;28;46009;-61
2023/04/29 08:09:17;;;;;;;;;36.50;30.50;;;;;15.93;60.92;101271.38;4934071;28;45246;-60
2023/04/29 08:11:43;;;;;;;;;29.75;28.00;;;;;15.99;60.76;101278.75;4932184;28;47329;-57
2023/04/29 08:14:09;;;;;;;;;31.40;29.40;;;;;16.04;60.72;101282.72;5001753;28;45656;-60
2023/04/29 08:16:34;;;;;;;;;36.00;28.75;;;;;16.19;60.43;101291.47;4930555;28;46691;-61
2023/04/29 08:19:00;;;;;;;;;32.25;30.25;;;;;16.11;60.14;101281.56;4952397;28;46136;-62
2023/04/29 08:21:26;;;;;;;;;33.50;30.00;;;;;16.06;60.38;101283.34;5065583;28;45958;-60
2023/04/29 08:23:52;;;;;;;;;22.40;20.80;;;;;15.72;61.46;101284.63;5033187;28;45412;-61
2023/04/29 08:26:18;;;;;;;;;31.75;29.25;;;;;15.63;61.66;101285.19;4986026;28;46076;-59
2023/04/29 08:28:44;;;;;;;;;30.75;26.50;;;;;15.77;61.71;101294.13;4938001;28;45925;-57
2023/04/29 08:31:19;;;;;;;;;29.50;27.00;;;;;15.68;61.80;101288.94;4938291;28;45729;-59
2023/04/29 08:33:45;;;;;;;;;36.20;28.80;;;;;15.77;61.47;101292.22;4929929;28;45517;-55
2023/04/29 08:36:11;;;;;;;;;33.25;28.25;;;;;15.85;60.87;101289.13;4928604;28;47135;-59
2023/04/29 08:38:37;;;;;;;;;29.75;28.25;;;;;16.01;60.56;101299.81;4930340;28;45704;-60
2023/04/29 08:41:02;;;;;;;;;26.25;24.50;;;;;16.03;60.30;101292.09;4930866;28;45439;-60
2023/04/29 08:43:28;;;;;;;;;31.50;28.50;;;;;16.07;60.40;101287.81;4948116;28;45573;-60
2023/04/29 08:45:54;;;;;;;;;30.25;25.00;;;;;16.26;59.24;101291.34;4982737;28;46397;-60
2023/04/29 08:48:19;;;;;;;;;31.50;29.50;;;;;16.28;58.96;101296.66;4919401;28;45744;-60
2023/04/29 08:50:45;;;;;;;;;32.75;29.50;;;;;16.27;59.02;101293.03;4939372;28;45456;-60
2023/04/29 08:53:11;;;;;;;;;31.75;29.50;;;;;16.15;59.68;101297.69;4982687;28;45398;-59
2023/04/29 08:55:46;;;;;;;;;41.40;32.60;;;;;16.17;59.92;101298.31;4933965;28;45775;-60
2023/04/29 08:58:13;;;;;;;;;34.20;28.40;;;;;16.22;59.41;101299.28;4934101;28;45529;-61
2023/04/29 09:00:42;;;;;;;;;35.00;29.40;;;;;16.43;58.96;101296.22;4949919;28;45930;-61
2023/04/29 09:03:16;;;;;;;;;26.00;22.00;;;;;16.47;58.64;101292.72;4949437;28;45520;-61
2023/04/29 09:05:42;;;;;;;;;37.40;29.20;;;;;16.69;58.50;101299.63;4953166;28;45820;-61
2023/04/29 09:08:07;;;;;;;;;44.00;34.25;;;;;16.51;58.34;101298.63;4953546;28;45466;-61
2023/04/29 09:10:35;;;;;;;;;31.50;27.75;;;;;16.59;58.39;101301.03;4965825;28;45367;-61
2023/04/29 09:13:01;;;;;;;;;33.60;30.40;;;;;16.65;58.16;101311.16;4949141;28;45565;-60
2023/04/29 09:15:26;;;;;;;;;30.00;24.75;;;;;16.52;58.32;101303.06;4934116;28;45681;-61
2023/04/29 09:17:52;;;;;;;;;42.25;35.00;;;;;16.66;57.85;101303.72;4934345;28;45392;-62
2023/04/29 09:20:20;;;;;;;;;36.20;31.40;;;;;16.81;57.68;101297.66;4953969;28;45420;-62
2023/04/29 09:22:56;;;;;;;;;43.60;35.00;;;;;16.99;57.39;101310.59;4954171;28;45521;-63
2023/04/29 09:25:22;;;;;;;;;38.40;33.20;;;;;17.10;56.84;101310.84;4953932;28;46572;-62
2023/04/29 09:27:47;;;;;;;;;36.75;29.25;;;;;16.93;57.37;101315.16;4954107;28;45595;-62
2023/04/29 09:30:15;;;;;;;;;34.75;31.75;;;;;16.90;57.13;101312.88;4948471;28;45311;-62
2023/04/29 09:32:41;;;;;;;;;29.80;26.60;;;;;16.97;57.02;101320.25;4953858;28;45755;-63
2023/04/29 09:35:26;;;;;;;;;50.20;37.60;;;;;16.91;56.86;101314.56;4970274;28;47014;-62
2023/04/29 09:37:55;;;;;;;;;40.40;34.40;;;;;16.95;56.99;101303.84;4933879;28;45512;-60
2023/04/29 09:40:31;;;;;;;;;42.40;35.00;;;;;16.94;56.94;101314.09;4934193;28;45444;-63
2023/04/29 09:42:57;;;;;;;;;42.40;33.80;;;;;17.05;57.08;101319.91;4937344;28;45382;-62
2023/04/29 09:45:40;;;;;;;;;47.60;37.20;;;;;17.04;57.30;101316.25;4933983;28;46437;-62
2023/04/29 09:48:07;;;;;;;;;48.80;37.00;;;;;16.98;56.76;101324.69;4934128;28;45397;-63
2023/04/29 09:50:39;;;;;;;;;49.80;36.80;;;;;16.87;57.30;101318.88;4934645;28;45295;-64
2023/04/29 09:53:07;;;;;;;;;47.40;36.60;;;;;17.05;57.47;101328.22;5020996;28;45537;-62
2023/04/29 09:55:51;;;;;;;;;44.60;35.40;;;;;17.18;56.79;101330.75;4958141;28;45337;-62
2023/04/29 09:58:32;;;;;;;;;27.40;27.00;;;;;17.21;56.51;101334.97;4933979;28;46069;-62
2023/04/29 10:00:59;;;;;;;;;47.80;35.60;;;;;17.36;56.24;101331.69;5065170;28;45508;-61
2023/04/29 10:03:27;;;;;;;;;42.20;36.60;;;;;17.43;56.07;101332.41;5033951;28;45616;-60
2023/04/29 10:05:52;;;;;;;;;44.40;36.40;;;;;17.46;55.70;101328.31;5025754;28;45997;-59
2023/04/29 10:08:18;;;;;;;;;49.75;36.25;;;;;17.34;56.01;101333.84;4924161;28;45604;-60
2023/04/29 10:10:46;;;;;;;;;40.75;35.00;;;;;17.28;55.79;101326.53;4931426;28;45410;-59
2023/04/29 10:13:11;;;;;;;;;48.40;37.00;;;;;17.38;56.14;101325.88;4933596;28;45397;-63
2023/04/29 10:15:46;;;;;;;;;47.00;37.00;;;;;17.49;55.69;101325.03;4931526;28;46196;-60
2023/04/29 10:18:21;;;;;;;;;47.60;38.00;;;;;17.36;55.09;101319.75;4946676;28;45521;-62
2023/04/29 10:20:47;;;;;;;;;49.20;39.60;;;;;17.50;55.28;101320.34;4965880;28;45462;-63
2023/04/29 10:23:13;;;;;;;;;44.00;37.80;;;;;17.59;54.84;101327.19;4983603;28;45565;-63
2023/04/29 10:25:39;;;;;;;;;47.20;38.80;;;;;17.64;54.39;101309.78;4982704;28;46394;-61
2023/04/29 10:28:04;;;;;;;;;41.50;34.75;;;;;17.82;53.49;101325.44;4973609;28;45430;-61
2023/04/29 10:30:30;;;;;;;;;38.50;34.00;;;;;17.89;53.46;101320.59;4950950;28;45413;-62
2023/04/29 10:32:56;;;;;;;;;43.00;34.75;;;;;17.87;53.35;101326.38;4965007;28;45666;-64
2023/04/29 10:35:24;;;;;;;;;39.80;34.60;;;;;17.99;53.14;101329.09;4932560;28;45711;-60
2023/04/29 10:37:49;;;;;;;;;38.40;32.80;;;;;18.01;52.54;101326.94;4932653;28;45712;-62
2023/04/29 10:40:19;;;;;;;;;46.25;37.25;;;;;18.04;52.37;101335.84;4948036;28;45362;-63
2023/04/29 10:42:49;;;;;;;;;44.00;36.20;;;;;18.01;52.82;101339.97;4934268;28;45384;-63
2023/04/29 10:45:19;;;;;;;;;45.40;36.40;;;;;17.80;52.71;101330.38;4913434;28;46177;-63
2023/04/29 10:48:07;;;;;;;;;47.20;37.00;;;;;17.85;52.80;101328.56;4922133;28;45478;-63
2023/04/29 10:50:48;;;;;;;;;48.20;37.60;;;;;17.89;52.88;101343.63;4932704;28;45674;-63
2023/04/29 10:53:18;;;;;;;;;45.20;37.60;;;;;17.97;52.71;101335.97;4977109;28;45401;-61
2023/04/29 10:55:46;;;;;;;;;42.20;33.00;;;;;18.10;51.87;101340.44;4982754;28;45410;-62
2023/04/29 10:58:41;;;;;;;;;43.80;36.80;;;;;17.93;52.11;101321.75;4950828;28;45375;-61
2023/04/29 11:01:07;;;;;;;;;48.60;37.80;;;;;18.06;52.14;101329.00;4952928;28;45808;-61
2023/04/29 11:03:54;;;;;;;;;43.75;35.00;;;;;18.01;52.21;101331.63;4952975;28;45805;-60
2023/04/29 11:06:24;;;;;;;;;43.40;34.80;;;;;18.14;51.35;101319.41;4981598;28;45810;-62
2023/04/29 11:09:21;;;;;;;;;36.20;32.80;;;;;18.21;50.62;101320.13;4960594;28;45416;-59
2023/04/29 11:11:58;;;;;;;;;42.00;33.60;;;;;18.40;50.30;101334.63;4952631;28;45372;-60
2023/04/29 11:14:25;;;;;;;;;35.20;31.20;;;;;18.34;50.10;101334.75;4941849;27;45421;-60